createdAt,value
2022-12-16T00:01:38.008Z,94818.00
2022-12-16T00:05:44.421Z,94826.00
2022-12-16T00:09:47.681Z,94825.00
2022-12-16T00:14:27.494Z,94832.00
2022-12-16T00:18:30.533Z,94822.00
2022-12-16T00:22:33.564Z,94822.00
2022-12-16T00:26:36.617Z,94823.00
2022-12-16T00:30:41.381Z,94817.00
2022-12-16T00:34:44.433Z,94814.00
2022-12-16T00:38:47.491Z,94809.00
2022-12-16T00:42:50.561Z,94819.00
2022-12-16T00:46:56.641Z,94813.00
2022-12-16T00:51:33.495Z,94805.00
2022-12-16T00:55:36.579Z,94809.00
2022-12-16T00:59:39.613Z,94827.00
2022-12-16T01:03:44.101Z,94818.00
2022-12-16T01:07:53.208Z,94820.00
2022-12-16T01:11:56.818Z,94817.00
2022-12-16T01:16:01.927Z,94834.00
2022-12-16T01:20:07.707Z,94831.00
2022-12-16T01:24:41.608Z,94826.00
2022-12-16T01:28:44.989Z,94823.00
2022-12-16T01:32:48.061Z,94820.00
2022-12-16T01:36:52.485Z,94828.00
2022-12-16T01:40:55.792Z,94819.00
2022-12-16T01:45:19.266Z,94834.00
2022-12-16T01:49:27.118Z,94821.00
2022-12-16T01:53:32.465Z,94822.00
2022-12-16T01:57:41.935Z,94826.00
2022-12-16T02:01:45.070Z,94834.00
2022-12-16T02:05:49.322Z,94836.00
2022-12-16T02:09:54.024Z,94846.00
2022-12-16T02:14:23.380Z,94845.00
2022-12-16T02:19:04.000Z,94842.00
2022-12-16T02:23:26.785Z,94844.00
2022-12-16T02:27:58.170Z,94837.00
2022-12-16T02:32:09.316Z,94846.00
2022-12-16T02:36:20.856Z,94857.00
2022-12-16T02:40:28.277Z,94875.00
2022-12-16T02:44:42.771Z,94870.00
2022-12-16T02:48:47.404Z,94859.00
2022-12-16T02:52:51.573Z,94874.00
2022-12-16T02:57:08.761Z,94889.00
2022-12-16T03:01:10.904Z,94900.00
2022-12-16T03:05:21.000Z,94905.00
2022-12-16T03:09:29.772Z,94897.00
2022-12-16T03:13:36.784Z,94901.00
2022-12-16T03:17:40.584Z,94910.00
2022-12-16T03:21:50.501Z,94913.00
2022-12-16T03:25:57.538Z,94897.00
2022-12-16T03:30:06.795Z,94892.00
2022-12-16T03:34:17.807Z,94896.00
2022-12-16T03:38:23.309Z,94889.00
2022-12-16T03:42:27.924Z,94895.00
2022-12-16T03:46:31.021Z,94896.00
2022-12-16T03:50:35.312Z,94904.00
2022-12-16T03:54:39.762Z,94908.00
2022-12-16T03:58:43.086Z,94912.00
2022-12-16T04:02:46.401Z,94916.00
2022-12-16T04:07:10.056Z,94909.00
2022-12-16T04:11:31.699Z,94918.00
2022-12-16T04:15:58.158Z,94918.00
2022-12-16T04:20:18.680Z,94926.00
2022-12-16T04:24:29.880Z,94909.00
2022-12-16T04:28:34.309Z,94923.00
2022-12-16T04:32:51.216Z,94926.00
2022-12-16T04:37:11.784Z,94938.00
2022-12-16T04:41:32.412Z,94952.00
2022-12-16T04:45:54.599Z,94957.00
2022-12-16T04:50:14.963Z,94963.00
2022-12-16T04:54:35.569Z,94949.00
2022-12-16T04:58:56.059Z,94969.00
2022-12-16T05:03:18.074Z,94977.00
2022-12-16T05:07:38.980Z,94976.00
2022-12-16T05:11:59.775Z,94967.00
2022-12-16T05:16:20.265Z,94963.00
2022-12-16T05:20:42.038Z,94957.00
2022-12-16T05:25:02.567Z,94958.00
2022-12-16T05:29:22.974Z,94960.00
2022-12-16T05:33:43.685Z,94967.00
2022-12-16T05:43:21.024Z,94973.00
2022-12-16T05:47:53.609Z,94989.00
2022-12-16T05:52:31.659Z,94996.00
2022-12-16T05:57:04.834Z,95004.00
2022-12-16T06:01:42.249Z,95015.00
2022-12-16T06:06:18.112Z,95014.00
2022-12-16T06:10:53.491Z,95022.00
2022-12-16T06:15:29.542Z,95017.00
2022-12-16T06:20:05.771Z,95037.00
2022-12-16T06:24:26.666Z,95035.00
2022-12-16T06:29:08.225Z,95028.00
2022-12-16T06:33:28.814Z,95029.00
2022-12-16T06:38:07.653Z,95043.00
2022-12-16T06:42:27.801Z,95039.00
2022-12-16T06:47:03.689Z,95045.00
2022-12-16T06:51:39.177Z,95050.00
2022-12-16T06:56:16.577Z,95054.00
2022-12-16T07:00:48.584Z,95058.00
2022-12-16T07:05:46.233Z,95064.00
2022-12-16T07:10:40.657Z,95068.00
2022-12-16T07:15:18.166Z,95081.00
2022-12-16T07:19:50.412Z,95089.00
2022-12-16T07:24:26.419Z,95108.00
2022-12-16T07:29:02.153Z,95111.00
2022-12-16T07:33:23.932Z,95122.00
2022-12-16T07:37:44.590Z,95141.00
2022-12-16T07:42:19.968Z,95146.00
2022-12-16T07:46:55.921Z,95158.00
2022-12-16T07:51:32.846Z,95173.00
2022-12-16T07:55:52.970Z,95180.00
2022-12-16T08:00:14.479Z,95183.00
2022-12-16T08:04:50.068Z,95183.00
2022-12-16T08:09:12.625Z,95184.00
2022-12-16T08:13:33.991Z,95201.00
2022-12-16T08:18:10.510Z,95202.00
2022-12-16T08:22:51.877Z,95209.00
2022-12-16T08:27:14.355Z,95211.00
2022-12-16T08:31:49.716Z,95212.00
2022-12-16T08:36:26.185Z,95221.00
2022-12-16T08:41:02.890Z,95238.00
2022-12-16T08:45:39.602Z,95244.00
2022-12-16T08:50:14.947Z,95247.00
2022-12-16T08:54:50.174Z,95256.00
2022-12-16T08:59:26.099Z,95257.00
2022-12-16T09:04:02.882Z,95269.00
2022-12-16T09:08:35.718Z,95272.00
2022-12-16T09:18:27.734Z,95265.00
2022-12-16T09:23:19.894Z,95257.00
2022-12-16T09:28:17.894Z,95268.00
2022-12-16T09:33:12.588Z,95289.00
2022-12-16T09:37:48.111Z,95298.00
2022-12-16T09:42:40.341Z,95296.00
2022-12-16T09:47:11.270Z,95301.00
2022-12-16T09:52:05.107Z,95318.00
2022-12-16T09:56:46.917Z,95320.00
2022-12-16T10:01:18.914Z,95311.00
2022-12-16T10:06:02.509Z,95329.00
2022-12-16T10:11:02.454Z,95333.00
2022-12-16T10:16:00.195Z,95335.00
2022-12-16T10:21:00.140Z,95325.00
2022-12-16T10:25:27.549Z,95345.00
2022-12-16T10:29:58.562Z,95350.00
2022-12-16T10:34:35.581Z,95338.00
2022-12-16T10:39:32.968Z,95341.00
2022-12-16T10:44:12.964Z,95343.00
2022-12-16T10:48:53.579Z,95352.00
2022-12-16T10:53:21.773Z,95348.00
2022-12-16T10:58:18.790Z,95356.00
2022-12-16T11:07:58.204Z,95359.00
2022-12-16T11:12:42.533Z,95362.00
2022-12-16T11:17:34.462Z,95363.00
2022-12-16T11:21:56.287Z,95357.00
2022-12-16T11:26:25.129Z,95363.00
2022-12-16T11:31:00.867Z,95374.00
2022-12-16T11:35:23.556Z,95372.00
2022-12-16T11:39:49.007Z,95377.00
2022-12-16T11:44:20.729Z,95379.00
2022-12-16T11:48:54.686Z,95382.00
2022-12-16T11:53:51.436Z,95386.00
2022-12-16T11:58:22.897Z,95389.00
2022-12-16T12:02:50.802Z,95384.00
2022-12-16T12:07:48.224Z,95404.00
2022-12-16T12:12:13.980Z,95397.00
2022-12-16T12:17:11.672Z,95400.00
2022-12-16T12:21:42.445Z,95408.00
2022-12-16T12:26:10.214Z,95405.00
2022-12-16T12:30:33.511Z,95410.00
2022-12-16T12:35:03.169Z,95417.00
2022-12-16T12:39:38.815Z,95423.00
2022-12-16T12:44:42.378Z,95423.00
2022-12-16T12:49:17.596Z,95404.00
2022-12-16T12:53:46.885Z,95434.00
2022-12-16T12:58:18.469Z,95445.00
2022-12-16T13:02:43.953Z,95453.00
2022-12-16T13:07:05.133Z,95443.00
2022-12-16T13:11:41.382Z,95451.00
2022-12-16T13:16:03.232Z,95458.00
2022-12-16T13:20:45.378Z,95464.00
2022-12-16T13:25:08.566Z,95454.00
2022-12-16T13:29:43.378Z,95468.00
2022-12-16T13:34:19.954Z,95469.00
2022-12-16T13:38:41.025Z,95476.00
2022-12-16T13:43:20.680Z,95478.00
2022-12-16T13:48:05.633Z,95498.00
2022-12-16T13:52:36.790Z,95505.00
2022-12-16T13:57:02.313Z,95517.00
2022-12-16T14:01:28.960Z,95513.00
2022-12-16T14:05:54.801Z,95521.00
2022-12-16T14:10:41.236Z,95528.00
2022-12-16T14:15:07.259Z,95545.00
2022-12-16T14:19:38.075Z,95551.00
2022-12-16T14:24:09.835Z,95562.00
2022-12-16T14:28:42.141Z,95555.00
2022-12-16T14:33:02.501Z,95563.00
2022-12-16T14:37:57.220Z,95568.00
2022-12-16T14:42:18.356Z,95579.00
2022-12-16T14:46:47.244Z,95578.00
2022-12-16T14:51:07.885Z,95585.00
2022-12-16T14:55:33.900Z,95584.00
2022-12-16T14:59:55.989Z,95587.00
2022-12-16T15:04:19.814Z,95597.00
2022-12-16T15:08:49.481Z,95606.00
2022-12-16T15:13:09.778Z,95616.00
2022-12-16T15:18:08.074Z,95623.00
2022-12-16T15:22:35.141Z,95623.00
2022-12-16T15:26:55.934Z,95649.00
2022-12-16T15:31:24.719Z,95654.00
2022-12-16T15:35:50.098Z,95643.00
2022-12-16T15:40:40.048Z,95657.00
2022-12-16T15:45:07.884Z,95653.00
2022-12-16T15:49:40.224Z,95659.00
2022-12-16T15:54:01.487Z,95659.00
2022-12-16T15:58:45.366Z,95659.00
2022-12-16T16:03:08.090Z,95673.00
2022-12-16T16:07:33.629Z,95684.00
2022-12-16T16:12:31.301Z,95686.00
2022-12-16T16:17:34.061Z,95696.00
2022-12-16T16:21:54.761Z,95701.00
2022-12-16T16:26:15.675Z,95714.00
2022-12-16T16:30:51.927Z,95708.00
2022-12-16T16:35:29.388Z,95715.00
2022-12-16T16:39:50.307Z,95723.00
2022-12-16T16:44:27.212Z,95720.00
2022-12-16T16:49:12.967Z,95739.00
2022-12-16T16:53:49.663Z,95736.00
2022-12-16T16:58:29.518Z,95741.00
2022-12-16T17:03:02.271Z,95750.00
2022-12-16T17:07:37.975Z,95742.00
2022-12-16T17:12:15.027Z,95752.00
2022-12-16T17:16:35.793Z,95762.00
2022-12-16T17:20:56.421Z,95773.00
2022-12-16T17:25:33.080Z,95776.00
2022-12-16T17:30:10.123Z,95782.00
2022-12-16T17:34:45.928Z,95803.00
2022-12-16T17:39:34.088Z,95810.00
2022-12-16T17:44:07.030Z,95811.00
2022-12-16T17:48:46.184Z,95812.00
2022-12-16T17:53:06.670Z,95824.00
2022-12-16T17:57:41.653Z,95814.00
2022-12-16T18:02:17.797Z,95818.00
2022-12-16T18:06:54.890Z,95820.00
2022-12-16T18:11:32.566Z,95832.00
2022-12-16T18:16:33.513Z,95840.00
2022-12-16T18:21:28.665Z,95852.00
2022-12-16T18:26:15.869Z,95854.00
2022-12-16T18:30:39.844Z,95867.00
2022-12-16T18:35:26.723Z,95864.00
2022-12-16T18:40:23.970Z,95883.00
2022-12-16T18:45:19.724Z,95889.00
2022-12-16T18:49:54.885Z,95878.00
2022-12-16T18:54:52.537Z,95885.00
2022-12-16T18:59:46.561Z,95897.00
2022-12-16T19:04:24.640Z,95897.00
2022-12-16T19:09:00.636Z,95917.00
2022-12-16T19:18:38.086Z,95916.00
2022-12-16T19:23:36.283Z,95927.00
2022-12-16T19:28:32.696Z,95934.00
2022-12-16T19:33:08.331Z,95944.00
2022-12-16T19:37:44.700Z,95950.00
2022-12-16T19:42:20.630Z,95946.00
2022-12-16T19:46:57.795Z,95962.00
2022-12-16T19:51:30.607Z,95974.00
2022-12-16T19:56:12.803Z,95974.00
2022-12-16T20:00:41.858Z,95979.00
2022-12-16T20:05:18.493Z,95990.00
2022-12-16T20:09:54.851Z,95993.00
2022-12-16T20:14:29.092Z,96001.00
2022-12-16T20:19:05.040Z,96003.00
2022-12-16T20:23:42.125Z,96010.00
2022-12-16T20:32:57.715Z,96010.00
2022-12-16T20:37:33.705Z,96019.00
2022-12-16T20:42:10.693Z,96031.00
2022-12-16T20:46:46.892Z,96045.00
2022-12-16T20:51:27.021Z,96045.00
2022-12-16T20:55:59.763Z,96056.00
2022-12-16T21:00:19.298Z,96072.00
2022-12-16T21:04:42.928Z,96072.00
2022-12-16T21:09:15.943Z,96082.00
2022-12-16T21:13:50.964Z,96086.00
2022-12-16T21:14:42.429Z,96021.00
2022-12-16T21:18:17.971Z,96089.00
2022-12-16T21:22:48.052Z,96093.00
2022-12-16T21:27:24.338Z,96108.00
2022-12-16T21:31:44.985Z,96119.00
2022-12-16T21:36:11.810Z,96123.00
2022-12-16T21:40:41.448Z,96127.00
2022-12-16T21:45:17.017Z,96138.00
2022-12-16T21:49:37.337Z,96137.00
2022-12-16T21:54:14.679Z,96152.00
2022-12-16T21:58:51.382Z,96149.00
2022-12-16T22:03:27.490Z,96158.00
2022-12-16T22:07:48.224Z,96156.00
2022-12-16T22:12:25.307Z,96165.00
2022-12-16T22:17:25.262Z,96171.00
2022-12-16T22:21:47.512Z,96178.00
2022-12-16T22:26:23.411Z,96178.00
2022-12-16T22:30:45.207Z,96188.00
2022-12-16T22:35:20.538Z,96188.00
2022-12-16T22:39:44.689Z,96194.00
2022-12-16T22:44:05.662Z,96211.00
2022-12-16T22:48:29.954Z,96212.00
2022-12-16T22:53:02.491Z,96211.00
2022-12-16T22:57:23.573Z,96213.00
2022-12-16T23:01:58.919Z,96213.00
2022-12-16T23:06:22.478Z,96227.00
2022-12-16T23:10:42.801Z,96234.00
2022-12-16T23:15:03.385Z,96239.00
2022-12-16T23:19:24.104Z,96237.00
2022-12-16T23:23:46.442Z,96235.00
2022-12-16T23:28:06.910Z,96237.00
2022-12-16T23:32:27.727Z,96241.00
2022-12-16T23:36:48.436Z,96240.00
2022-12-16T23:41:29.198Z,96243.00
2022-12-16T23:50:34.525Z,96249.00
2022-12-16T23:55:10.377Z,96252.00
2022-12-16T23:59:48.247Z,96256.00
